Adair Village, Oregon
Current Conditions -  °F | °C
As of 12:15 PM on Saturday 25 Oct 2014 (Local Time) from KCVO Reporting Station
Overcast Overcast  
Wind Chill: 61°   Ceiling: 5000
Heat Index: 61°   Visibility: 10mi
Dew Point: 55°   Wind: 23mph
Humidity: 82%   Direction: 200°SSW
Pressure: 29.43"   Gusts: 29mph
Location:  44.6364°N, 123.28°W
Report Text: KCVO 251915Z AUTO 20020G25KT 10SM FEW042 BKN050 OVC060 16/13 A2943 RMK AO1
Loading
Personal Weather Stations






























Interactive Weather Map New forecast layout! Learn more

10-Day Weather Forecast

Advertisements
Track Severe Weather on mobile